sensor_id;sensor_type;location;lat;lon;timestamp;temperature;humidity
17236;DHT22;8734;59.272;17.780;2022-11-15T00:01:16;7.80;99.90
17236;DHT22;8734;59.272;17.780;2022-11-15T00:03:45;7.80;99.90
17236;DHT22;8734;59.272;17.780;2022-11-15T00:06:14;7.80;99.90
17236;DHT22;8734;59.272;17.780;2022-11-15T00:08:42;7.70;99.90
17236;DHT22;8734;59.272;17.780;2022-11-15T00:11:14;7.80;99.90
17236;DHT22;8734;59.272;17.780;2022-11-15T00:13:42;7.70;99.90
17236;DHT22;8734;59.272;17.780;2022-11-15T00:16:10;7.70;99.90
17236;DHT22;8734;59.272;17.780;2022-11-15T00:18:38;7.70;99.90
17236;DHT22;8734;59.272;17.780;2022-11-15T00:21:17;7.80;99.90
17236;DHT22;8734;59.272;17.780;2022-11-15T00:23:45;7.80;99.90
17236;DHT22;8734;59.272;17.780;2022-11-15T00:26:15;7.70;99.90
17236;DHT22;8734;59.272;17.780;2022-11-15T00:28:43;7.70;99.90
17236;DHT22;8734;59.272;17.780;2022-11-15T00:31:13;7.70;99.90
17236;DHT22;8734;59.272;17.780;2022-11-15T00:33:43;7.70;99.90
17236;DHT22;8734;59.272;17.780;2022-11-15T00:36:12;7.60;99.90
17236;DHT22;8734;59.272;17.780;2022-11-15T00:38:40;7.60;99.90
17236;DHT22;8734;59.272;17.780;2022-11-15T00:41:08;7.60;99.90
17236;DHT22;8734;59.272;17.780;2022-11-15T00:43:38;7.60;99.90
17236;DHT22;8734;59.272;17.780;2022-11-15T00:46:10;7.60;99.90
17236;DHT22;8734;59.272;17.780;2022-11-15T00:48:39;7.60;99.90
17236;DHT22;8734;59.272;17.780;2022-11-15T00:51:07;7.50;99.90
17236;DHT22;8734;59.272;17.780;2022-11-15T00:53:35;7.50;99.90
17236;DHT22;8734;59.272;17.780;2022-11-15T00:56:04;7.50;99.90
17236;DHT22;8734;59.272;17.780;2022-11-15T00:58:32;7.50;99.90
17236;DHT22;8734;59.272;17.780;2022-11-15T01:01:09;7.50;99.90
17236;DHT22;8734;59.272;17.780;2022-11-15T01:03:39;7.50;99.90
17236;DHT22;8734;59.272;17.780;2022-11-15T01:06:10;7.40;99.90
17236;DHT22;8734;59.272;17.780;2022-11-15T01:08:38;7.40;99.90
17236;DHT22;8734;59.272;17.780;2022-11-15T01:11:08;7.40;99.90
17236;DHT22;8734;59.272;17.780;2022-11-15T01:13:38;7.40;99.90
17236;DHT22;8734;59.272;17.780;2022-11-15T01:16:11;7.40;99.90
17236;DHT22;8734;59.272;17.780;2022-11-15T01:18:40;7.40;99.90
17236;DHT22;8734;59.272;17.780;2022-11-15T01:21:10;7.40;99.90
17236;DHT22;8734;59.272;17.780;2022-11-15T01:23:43;7.40;99.90
17236;DHT22;8734;59.272;17.780;2022-11-15T01:26:14;7.40;99.90
17236;DHT22;8734;59.272;17.780;2022-11-15T01:28:42;7.30;99.90
17236;DHT22;8734;59.272;17.780;2022-11-15T01:31:15;7.30;99.90
17236;DHT22;8734;59.272;17.780;2022-11-15T01:33:44;7.30;99.90
17236;DHT22;8734;59.272;17.780;2022-11-15T01:36:15;7.30;99.90
17236;DHT22;8734;59.272;17.780;2022-11-15T01:38:44;7.30;99.90
17236;DHT22;8734;59.272;17.780;2022-11-15T01:41:17;7.30;99.90
17236;DHT22;8734;59.272;17.780;2022-11-15T01:43:47;7.30;99.90
17236;DHT22;8734;59.272;17.780;2022-11-15T01:46:25;7.30;99.90
17236;DHT22;8734;59.272;17.780;2022-11-15T01:48:57;7.20;99.90
17236;DHT22;8734;59.272;17.780;2022-11-15T01:51:30;7.20;99.90
17236;DHT22;8734;59.272;17.780;2022-11-15T01:54:02;7.20;99.90
17236;DHT22;8734;59.272;17.780;2022-11-15T01:56:36;7.20;99.90
17236;DHT22;8734;59.272;17.780;2022-11-15T01:59:07;7.20;99.90
17236;DHT22;8734;59.272;17.780;2022-11-15T02:01:37;7.10;99.90
17236;DHT22;8734;59.272;17.780;2022-11-15T02:04:10;7.10;99.90
17236;DHT22;8734;59.272;17.780;2022-11-15T02:06:40;7.10;99.90
17236;DHT22;8734;59.272;17.780;2022-11-15T02:09:09;7.00;99.90
17236;DHT22;8734;59.272;17.780;2022-11-15T02:11:37;7.00;99.90
17236;DHT22;8734;59.272;17.780;2022-11-15T02:14:07;6.90;99.90
17236;DHT22;8734;59.272;17.780;2022-11-15T02:16:47;6.80;99.90
17236;DHT22;8734;59.272;17.780;2022-11-15T02:19:32;6.70;99.90
17236;DHT22;8734;59.272;17.780;2022-11-15T02:22:10;6.70;99.90
17236;DHT22;8734;59.272;17.780;2022-11-15T02:25:05;6.70;99.90
17236;DHT22;8734;59.272;17.780;2022-11-15T02:28:10;6.70;99.90
17236;DHT22;8734;59.272;17.780;2022-11-15T02:30:48;6.70;99.90
17236;DHT22;8734;59.272;17.780;2022-11-15T02:33:28;6.70;99.90
17236;DHT22;8734;59.272;17.780;2022-11-15T02:36:00;6.60;99.90
17236;DHT22;8734;59.272;17.780;2022-11-15T02:38:40;6.70;99.90
17236;DHT22;8734;59.272;17.780;2022-11-15T02:41:16;6.60;99.90
17236;DHT22;8734;59.272;17.780;2022-11-15T02:43:50;6.60;99.90
17236;DHT22;8734;59.272;17.780;2022-11-15T02:46:31;6.60;99.90
17236;DHT22;8734;59.272;17.780;2022-11-15T02:49:19;6.60;99.90
17236;DHT22;8734;59.272;17.780;2022-11-15T02:51:49;6.60;99.90
17236;DHT22;8734;59.272;17.780;2022-11-15T02:54:22;6.60;99.90
17236;DHT22;8734;59.272;17.780;2022-11-15T02:56:52;6.60;99.90
17236;DHT22;8734;59.272;17.780;2022-11-15T03:02:36;6.60;99.90
17236;DHT22;8734;59.272;17.780;2022-11-15T03:05:14;6.60;99.90
17236;DHT22;8734;59.272;17.780;2022-11-15T03:07:53;6.60;99.90
17236;DHT22;8734;59.272;17.780;2022-11-15T03:10:35;6.50;99.90
17236;DHT22;8734;59.272;17.780;2022-11-15T03:13:11;6.50;99.90
17236;DHT22;8734;59.272;17.780;2022-11-15T03:15:46;6.50;99.90
17236;DHT22;8734;59.272;17.780;2022-11-15T03:18:21;6.50;99.90
17236;DHT22;8734;59.272;17.780;2022-11-15T03:20:50;6.50;99.90
17236;DHT22;8734;59.272;17.780;2022-11-15T03:23:19;6.40;99.90
17236;DHT22;8734;59.272;17.780;2022-11-15T03:25:49;6.40;99.90
17236;DHT22;8734;59.272;17.780;2022-11-15T03:28:22;6.30;99.90
17236;DHT22;8734;59.272;17.780;2022-11-15T03:30:52;6.30;99.90
17236;DHT22;8734;59.272;17.780;2022-11-15T03:33:23;6.20;99.90
17236;DHT22;8734;59.272;17.780;2022-11-15T03:35:53;6.20;99.90
17236;DHT22;8734;59.272;17.780;2022-11-15T03:38:24;6.20;99.90
17236;DHT22;8734;59.272;17.780;2022-11-15T03:40:58;6.20;99.90
17236;DHT22;8734;59.272;17.780;2022-11-15T03:43:33;6.10;99.90
17236;DHT22;8734;59.272;17.780;2022-11-15T03:46:10;6.10;99.90
17236;DHT22;8734;59.272;17.780;2022-11-15T03:51:29;6.10;99.90
17236;DHT22;8734;59.272;17.780;2022-11-15T03:53:57;6.10;99.90
17236;DHT22;8734;59.272;17.780;2022-11-15T03:56:26;6.10;99.90
17236;DHT22;8734;59.272;17.780;2022-11-15T03:58:54;6.00;99.90
17236;DHT22;8734;59.272;17.780;2022-11-15T04:01:22;6.00;99.90
17236;DHT22;8734;59.272;17.780;2022-11-15T04:03:53;6.00;99.90
17236;DHT22;8734;59.272;17.780;2022-11-15T04:06:21;5.90;99.90
17236;DHT22;8734;59.272;17.780;2022-11-15T04:08:49;5.90;99.90
17236;DHT22;8734;59.272;17.780;2022-11-15T04:11:19;5.90;99.90
17236;DHT22;8734;59.272;17.780;2022-11-15T04:13:47;5.90;99.90
17236;DHT22;8734;59.272;17.780;2022-11-15T04:16:15;5.90;99.90
17236;DHT22;8734;59.272;17.780;2022-11-15T04:18:44;5.90;99.90
17236;DHT22;8734;59.272;17.780;2022-11-15T04:21:34;5.90;99.90
17236;DHT22;8734;59.272;17.780;2022-11-15T04:24:20;5.90;99.90
17236;DHT22;8734;59.272;17.780;2022-11-15T04:26:48;5.90;99.90
17236;DHT22;8734;59.272;17.780;2022-11-15T04:29:17;5.90;99.90
17236;DHT22;8734;59.272;17.780;2022-11-15T04:32:03;5.90;99.90
17236;DHT22;8734;59.272;17.780;2022-11-15T04:34:32;5.90;99.90
17236;DHT22;8734;59.272;17.780;2022-11-15T04:37:02;5.90;99.90
17236;DHT22;8734;59.272;17.780;2022-11-15T04:39:40;5.90;99.90
17236;DHT22;8734;59.272;17.780;2022-11-15T04:42:09;5.90;99.90
17236;DHT22;8734;59.272;17.780;2022-11-15T04:44:37;5.90;99.90
17236;DHT22;8734;59.272;17.780;2022-11-15T04:47:06;6.00;99.90
17236;DHT22;8734;59.272;17.780;2022-11-15T04:49:34;5.90;99.90
17236;DHT22;8734;59.272;17.780;2022-11-15T04:52:04;5.90;99.90
17236;DHT22;8734;59.272;17.780;2022-11-15T04:54:32;6.00;99.90
17236;DHT22;8734;59.272;17.780;2022-11-15T04:57:00;6.00;99.90
17236;DHT22;8734;59.272;17.780;2022-11-15T04:59:29;6.00;99.90
17236;DHT22;8734;59.272;17.780;2022-11-15T05:01:57;6.00;99.90
17236;DHT22;8734;59.272;17.780;2022-11-15T05:04:25;6.00;99.90
17236;DHT22;8734;59.272;17.780;2022-11-15T05:06:53;6.00;99.90
17236;DHT22;8734;59.272;17.780;2022-11-15T05:09:23;6.00;99.90
17236;DHT22;8734;59.272;17.780;2022-11-15T05:11:51;6.00;99.90
17236;DHT22;8734;59.272;17.780;2022-11-15T05:14:19;6.00;99.90
17236;DHT22;8734;59.272;17.780;2022-11-15T05:16:47;6.00;99.90
17236;DHT22;8734;59.272;17.780;2022-11-15T05:19:15;6.00;99.90
17236;DHT22;8734;59.272;17.780;2022-11-15T05:21:43;6.00;99.90
17236;DHT22;8734;59.272;17.780;2022-11-15T05:24:13;6.00;99.90
17236;DHT22;8734;59.272;17.780;2022-11-15T05:26:42;6.00;99.90
17236;DHT22;8734;59.272;17.780;2022-11-15T05:29:10;6.10;99.90
17236;DHT22;8734;59.272;17.780;2022-11-15T05:31:40;6.10;99.90
17236;DHT22;8734;59.272;17.780;2022-11-15T05:34:09;6.10;99.90
17236;DHT22;8734;59.272;17.780;2022-11-15T05:36:41;6.10;99.90
17236;DHT22;8734;59.272;17.780;2022-11-15T05:39:11;6.10;99.90
17236;DHT22;8734;59.272;17.780;2022-11-15T05:41:44;6.10;99.90
17236;DHT22;8734;59.272;17.780;2022-11-15T05:44:16;6.10;99.90
17236;DHT22;8734;59.272;17.780;2022-11-15T05:46:45;6.10;99.90
17236;DHT22;8734;59.272;17.780;2022-11-15T05:49:15;6.10;99.90
17236;DHT22;8734;59.272;17.780;2022-11-15T05:51:46;6.10;99.90
17236;DHT22;8734;59.272;17.780;2022-11-15T05:54:15;6.10;99.90
17236;DHT22;8734;59.272;17.780;2022-11-15T05:56:46;6.10;99.90
17236;DHT22;8734;59.272;17.780;2022-11-15T05:59:15;6.10;99.90
17236;DHT22;8734;59.272;17.780;2022-11-15T06:01:43;6.10;99.90
17236;DHT22;8734;59.272;17.780;2022-11-15T06:04:11;6.20;99.90
17236;DHT22;8734;59.272;17.780;2022-11-15T06:06:40;6.20;99.90
17236;DHT22;8734;59.272;17.780;2022-11-15T06:09:08;6.20;99.90
17236;DHT22;8734;59.272;17.780;2022-11-15T06:11:36;6.20;99.90
17236;DHT22;8734;59.272;17.780;2022-11-15T06:14:06;6.20;99.90
17236;DHT22;8734;59.272;17.780;2022-11-15T06:16:34;6.20;99.90
17236;DHT22;8734;59.272;17.780;2022-11-15T06:19:02;6.30;99.90
17236;DHT22;8734;59.272;17.780;2022-11-15T06:21:31;6.30;99.90
17236;DHT22;8734;59.272;17.780;2022-11-15T06:23:59;6.30;99.90
17236;DHT22;8734;59.272;17.780;2022-11-15T06:26:28;6.30;99.90
17236;DHT22;8734;59.272;17.780;2022-11-15T06:28:56;6.30;99.90
17236;DHT22;8734;59.272;17.780;2022-11-15T06:31:26;6.40;99.90
17236;DHT22;8734;59.272;17.780;2022-11-15T06:33:54;6.40;99.90
17236;DHT22;8734;59.272;17.780;2022-11-15T06:36:23;6.40;99.90
17236;DHT22;8734;59.272;17.780;2022-11-15T06:38:51;6.40;99.90
17236;DHT22;8734;59.272;17.780;2022-11-15T06:41:20;6.40;99.90
17236;DHT22;8734;59.272;17.780;2022-11-15T06:43:49;6.40;99.90
17236;DHT22;8734;59.272;17.780;2022-11-15T06:46:17;6.40;99.90
17236;DHT22;8734;59.272;17.780;2022-11-15T06:48:47;6.40;99.90
17236;DHT22;8734;59.272;17.780;2022-11-15T06:51:16;6.50;99.90
17236;DHT22;8734;59.272;17.780;2022-11-15T06:53:44;6.50;99.90
17236;DHT22;8734;59.272;17.780;2022-11-15T06:56:12;6.50;99.90
17236;DHT22;8734;59.272;17.780;2022-11-15T06:58:41;6.50;99.90
17236;DHT22;8734;59.272;17.780;2022-11-15T07:01:12;6.50;99.90
17236;DHT22;8734;59.272;17.780;2022-11-15T07:03:42;6.60;99.90
17236;DHT22;8734;59.272;17.780;2022-11-15T07:06:12;6.60;99.90
17236;DHT22;8734;59.272;17.780;2022-11-15T07:08:40;6.60;99.90
17236;DHT22;8734;59.272;17.780;2022-11-15T07:11:09;6.60;99.90
17236;DHT22;8734;59.272;17.780;2022-11-15T07:13:38;6.60;99.90
17236;DHT22;8734;59.272;17.780;2022-11-15T07:16:07;6.60;99.90
17236;DHT22;8734;59.272;17.780;2022-11-15T07:18:36;6.70;99.90
17236;DHT22;8734;59.272;17.780;2022-11-15T07:21:07;6.70;99.90
17236;DHT22;8734;59.272;17.780;2022-11-15T07:23:38;6.70;99.90
17236;DHT22;8734;59.272;17.780;2022-11-15T07:26:07;6.70;99.90
17236;DHT22;8734;59.272;17.780;2022-11-15T07:28:35;6.70;99.90
17236;DHT22;8734;59.272;17.780;2022-11-15T07:31:05;6.70;99.90
17236;DHT22;8734;59.272;17.780;2022-11-15T07:33:33;6.70;99.90
17236;DHT22;8734;59.272;17.780;2022-11-15T07:36:02;6.70;99.90
17236;DHT22;8734;59.272;17.780;2022-11-15T07:38:31;6.70;99.90
17236;DHT22;8734;59.272;17.780;2022-11-15T07:41:08;6.70;99.90
17236;DHT22;8734;59.272;17.780;2022-11-15T07:43:37;6.70;99.90
17236;DHT22;8734;59.272;17.780;2022-11-15T07:46:07;6.70;99.90
17236;DHT22;8734;59.272;17.780;2022-11-15T07:48:37;6.70;99.90
17236;DHT22;8734;59.272;17.780;2022-11-15T07:51:11;6.70;99.90
17236;DHT22;8734;59.272;17.780;2022-11-15T07:53:41;6.60;99.90
17236;DHT22;8734;59.272;17.780;2022-11-15T07:56:11;6.60;99.90
17236;DHT22;8734;59.272;17.780;2022-11-15T07:58:40;6.60;99.90
17236;DHT22;8734;59.272;17.780;2022-11-15T08:01:10;6.60;99.90
17236;DHT22;8734;59.272;17.780;2022-11-15T08:03:38;6.60;99.90
17236;DHT22;8734;59.272;17.780;2022-11-15T08:06:06;6.60;99.90
17236;DHT22;8734;59.272;17.780;2022-11-15T08:08:35;6.60;99.90
17236;DHT22;8734;59.272;17.780;2022-11-15T08:11:03;6.60;99.90
17236;DHT22;8734;59.272;17.780;2022-11-15T08:13:33;6.70;99.90
17236;DHT22;8734;59.272;17.780;2022-11-15T08:16:02;6.70;99.90
17236;DHT22;8734;59.272;17.780;2022-11-15T08:18:33;6.80;99.90
17236;DHT22;8734;59.272;17.780;2022-11-15T08:21:01;6.80;99.90
17236;DHT22;8734;59.272;17.780;2022-11-15T08:23:30;6.80;99.90
17236;DHT22;8734;59.272;17.780;2022-11-15T08:26:00;6.80;99.90
17236;DHT22;8734;59.272;17.780;2022-11-15T08:28:29;6.80;99.90
17236;DHT22;8734;59.272;17.780;2022-11-15T08:31:00;6.90;99.90
17236;DHT22;8734;59.272;17.780;2022-11-15T08:33:28;6.90;99.90
17236;DHT22;8734;59.272;17.780;2022-11-15T08:35:58;6.90;99.90
17236;DHT22;8734;59.272;17.780;2022-11-15T08:38:27;6.90;99.90
17236;DHT22;8734;59.272;17.780;2022-11-15T08:41:01;6.90;99.90
17236;DHT22;8734;59.272;17.780;2022-11-15T08:43:30;6.90;99.90
17236;DHT22;8734;59.272;17.780;2022-11-15T08:46:00;6.80;99.90
17236;DHT22;8734;59.272;17.780;2022-11-15T08:48:29;6.80;99.90
17236;DHT22;8734;59.272;17.780;2022-11-15T08:51:01;6.90;99.90
17236;DHT22;8734;59.272;17.780;2022-11-15T08:53:29;7.00;99.90
17236;DHT22;8734;59.272;17.780;2022-11-15T08:55:57;7.00;99.90
17236;DHT22;8734;59.272;17.780;2022-11-15T08:58:26;7.00;99.90
17236;DHT22;8734;59.272;17.780;2022-11-15T09:00:55;7.00;99.90
17236;DHT22;8734;59.272;17.780;2022-11-15T09:03:25;7.00;99.90
17236;DHT22;8734;59.272;17.780;2022-11-15T09:05:54;6.90;99.90
17236;DHT22;8734;59.272;17.780;2022-11-15T09:08:24;6.90;99.90
17236;DHT22;8734;59.272;17.780;2022-11-15T09:11:12;7.00;99.90
17236;DHT22;8734;59.272;17.780;2022-11-15T09:13:41;7.10;99.90
17236;DHT22;8734;59.272;17.780;2022-11-15T09:16:10;7.10;99.90
17236;DHT22;8734;59.272;17.780;2022-11-15T09:18:40;7.10;99.90
17236;DHT22;8734;59.272;17.780;2022-11-15T09:21:09;7.00;99.90
17236;DHT22;8734;59.272;17.780;2022-11-15T09:23:37;7.00;99.90
17236;DHT22;8734;59.272;17.780;2022-11-15T09:26:06;7.00;99.90
17236;DHT22;8734;59.272;17.780;2022-11-15T09:28:36;7.00;99.90
17236;DHT22;8734;59.272;17.780;2022-11-15T09:31:05;7.00;99.90
17236;DHT22;8734;59.272;17.780;2022-11-15T09:33:34;7.00;99.90
17236;DHT22;8734;59.272;17.780;2022-11-15T09:36:06;7.10;99.90
17236;DHT22;8734;59.272;17.780;2022-11-15T09:38:35;7.10;99.90
17236;DHT22;8734;59.272;17.780;2022-11-15T09:44:20;7.10;99.90
17236;DHT22;8734;59.272;17.780;2022-11-15T09:46:58;7.10;99.90
17236;DHT22;8734;59.272;17.780;2022-11-15T09:49:31;7.10;99.90
17236;DHT22;8734;59.272;17.780;2022-11-15T09:52:02;7.20;99.90
17236;DHT22;8734;59.272;17.780;2022-11-15T09:54:33;7.20;99.90
17236;DHT22;8734;59.272;17.780;2022-11-15T09:57:24;7.20;99.90
17236;DHT22;8734;59.272;17.780;2022-11-15T10:00:07;7.20;99.90
17236;DHT22;8734;59.272;17.780;2022-11-15T10:03:13;7.20;99.90
17236;DHT22;8734;59.272;17.780;2022-11-15T10:05:43;7.20;99.90
17236;DHT22;8734;59.272;17.780;2022-11-15T10:08:30;7.20;99.90
17236;DHT22;8734;59.272;17.780;2022-11-15T10:11:01;7.30;99.90
17236;DHT22;8734;59.272;17.780;2022-11-15T10:13:52;7.30;99.90
17236;DHT22;8734;59.272;17.780;2022-11-15T10:19:25;7.40;99.90
17236;DHT22;8734;59.272;17.780;2022-11-15T10:22:00;7.50;99.90
17236;DHT22;8734;59.272;17.780;2022-11-15T10:24:39;7.50;99.90
17236;DHT22;8734;59.272;17.780;2022-11-15T10:27:11;7.50;99.90
17236;DHT22;8734;59.272;17.780;2022-11-15T10:29:43;7.50;99.90
17236;DHT22;8734;59.272;17.780;2022-11-15T10:32:13;7.50;99.90
17236;DHT22;8734;59.272;17.780;2022-11-15T10:34:42;7.40;99.90
17236;DHT22;8734;59.272;17.780;2022-11-15T10:37:10;7.40;99.90
17236;DHT22;8734;59.272;17.780;2022-11-15T10:39:40;7.40;99.90
17236;DHT22;8734;59.272;17.780;2022-11-15T10:42:25;7.40;99.90
17236;DHT22;8734;59.272;17.780;2022-11-15T10:44:54;7.40;99.90
17236;DHT22;8734;59.272;17.780;2022-11-15T10:47:27;7.40;99.90
17236;DHT22;8734;59.272;17.780;2022-11-15T10:50:11;7.40;99.90
17236;DHT22;8734;59.272;17.780;2022-11-15T10:52:53;7.40;99.90
17236;DHT22;8734;59.272;17.780;2022-11-15T10:55:28;7.50;99.90
17236;DHT22;8734;59.272;17.780;2022-11-15T10:58:02;7.50;99.90
17236;DHT22;8734;59.272;17.780;2022-11-15T11:00:34;7.50;99.90
17236;DHT22;8734;59.272;17.780;2022-11-15T11:03:26;7.50;99.90
17236;DHT22;8734;59.272;17.780;2022-11-15T11:06:08;7.50;99.90
17236;DHT22;8734;59.272;17.780;2022-11-15T11:08:37;7.50;99.90
17236;DHT22;8734;59.272;17.780;2022-11-15T11:11:07;7.50;99.90
17236;DHT22;8734;59.272;17.780;2022-11-15T11:13:38;7.50;99.90
17236;DHT22;8734;59.272;17.780;2022-11-15T11:16:26;7.40;99.90
17236;DHT22;8734;59.272;17.780;2022-11-15T11:19:17;7.40;99.90
17236;DHT22;8734;59.272;17.780;2022-11-15T11:21:49;7.40;99.90
17236;DHT22;8734;59.272;17.780;2022-11-15T11:24:26;7.50;99.90
17236;DHT22;8734;59.272;17.780;2022-11-15T11:27:12;7.50;99.90
17236;DHT22;8734;59.272;17.780;2022-11-15T11:29:54;7.50;99.90
17236;DHT22;8734;59.272;17.780;2022-11-15T11:32:39;7.50;99.90
17236;DHT22;8734;59.272;17.780;2022-11-15T11:35:12;7.50;99.90
17236;DHT22;8734;59.272;17.780;2022-11-15T11:37:56;7.40;99.90
17236;DHT22;8734;59.272;17.780;2022-11-15T11:40:32;7.40;99.90
17236;DHT22;8734;59.272;17.780;2022-11-15T11:43:22;7.40;99.90
17236;DHT22;8734;59.272;17.780;2022-11-15T11:48:50;7.30;99.90
17236;DHT22;8734;59.272;17.780;2022-11-15T11:51:25;7.30;99.90
17236;DHT22;8734;59.272;17.780;2022-11-15T11:53:58;7.40;99.90
17236;DHT22;8734;59.272;17.780;2022-11-15T11:56:32;7.40;99.90
17236;DHT22;8734;59.272;17.780;2022-11-15T11:59:07;7.40;99.90
17236;DHT22;8734;59.272;17.780;2022-11-15T12:01:41;7.40;99.90
17236;DHT22;8734;59.272;17.780;2022-11-15T12:04:14;7.40;99.90
17236;DHT22;8734;59.272;17.780;2022-11-15T12:06:49;7.40;99.90
17236;DHT22;8734;59.272;17.780;2022-11-15T12:09:23;7.40;99.90
17236;DHT22;8734;59.272;17.780;2022-11-15T12:11:57;7.40;99.90
17236;DHT22;8734;59.272;17.780;2022-11-15T12:14:33;7.40;99.90
17236;DHT22;8734;59.272;17.780;2022-11-15T12:17:04;7.30;99.90
17236;DHT22;8734;59.272;17.780;2022-11-15T12:19:32;7.20;99.90
17236;DHT22;8734;59.272;17.780;2022-11-15T12:22:04;7.30;99.90
17236;DHT22;8734;59.272;17.780;2022-11-15T12:24:38;7.20;99.90
17236;DHT22;8734;59.272;17.780;2022-11-15T12:27:15;7.20;99.90
17236;DHT22;8734;59.272;17.780;2022-11-15T12:29:56;7.20;99.90
17236;DHT22;8734;59.272;17.780;2022-11-15T12:32:29;7.10;99.90
17236;DHT22;8734;59.272;17.780;2022-11-15T12:35:02;7.10;99.90
17236;DHT22;8734;59.272;17.780;2022-11-15T12:37:47;7.10;99.90
17236;DHT22;8734;59.272;17.780;2022-11-15T12:40:35;7.10;99.90
17236;DHT22;8734;59.272;17.780;2022-11-15T12:43:36;7.20;99.90
17236;DHT22;8734;59.272;17.780;2022-11-15T12:46:12;7.20;99.90
17236;DHT22;8734;59.272;17.780;2022-11-15T12:48:56;7.20;99.90
17236;DHT22;8734;59.272;17.780;2022-11-15T12:54:54;7.20;99.90
17236;DHT22;8734;59.272;17.780;2022-11-15T12:57:38;7.10;99.90
17236;DHT22;8734;59.272;17.780;2022-11-15T13:03:28;7.00;99.90
17236;DHT22;8734;59.272;17.780;2022-11-15T13:06:05;7.10;99.90
17236;DHT22;8734;59.272;17.780;2022-11-15T13:08:46;7.00;99.90
17236;DHT22;8734;59.272;17.780;2022-11-15T13:11:49;7.00;99.90
17236;DHT22;8734;59.272;17.780;2022-11-15T13:14:50;7.00;99.90
17236;DHT22;8734;59.272;17.780;2022-11-15T13:17:33;7.00;99.90
17236;DHT22;8734;59.272;17.780;2022-11-15T13:20:21;7.00;99.90
17236;DHT22;8734;59.272;17.780;2022-11-15T13:22:51;7.00;99.90
17236;DHT22;8734;59.272;17.780;2022-11-15T13:25:25;7.00;99.90
17236;DHT22;8734;59.272;17.780;2022-11-15T13:27:54;6.90;99.90
17236;DHT22;8734;59.272;17.780;2022-11-15T13:30:30;6.90;99.90
17236;DHT22;8734;59.272;17.780;2022-11-15T13:33:06;6.90;99.90
17236;DHT22;8734;59.272;17.780;2022-11-15T13:35:41;6.90;99.90
17236;DHT22;8734;59.272;17.780;2022-11-15T13:38:18;6.90;99.90
17236;DHT22;8734;59.272;17.780;2022-11-15T13:40:48;6.80;99.90
17236;DHT22;8734;59.272;17.780;2022-11-15T13:43:28;6.80;99.90
17236;DHT22;8734;59.272;17.780;2022-11-15T13:46:19;6.80;99.90
17236;DHT22;8734;59.272;17.780;2022-11-15T13:48:52;6.70;99.90
17236;DHT22;8734;59.272;17.780;2022-11-15T13:51:27;6.70;99.90
17236;DHT22;8734;59.272;17.780;2022-11-15T13:53:57;6.70;99.90
17236;DHT22;8734;59.272;17.780;2022-11-15T13:56:27;6.60;99.90
17236;DHT22;8734;59.272;17.780;2022-11-15T13:58:56;6.60;99.90
17236;DHT22;8734;59.272;17.780;2022-11-15T14:01:31;6.60;99.90
17236;DHT22;8734;59.272;17.780;2022-11-15T14:04:00;6.60;99.90
17236;DHT22;8734;59.272;17.780;2022-11-15T14:06:30;6.60;99.90
17236;DHT22;8734;59.272;17.780;2022-11-15T14:09:33;6.50;99.90
17236;DHT22;8734;59.272;17.780;2022-11-15T14:12:20;6.50;99.90
17236;DHT22;8734;59.272;17.780;2022-11-15T14:14:49;6.50;99.90
17236;DHT22;8734;59.272;17.780;2022-11-15T14:17:21;6.50;99.90
17236;DHT22;8734;59.272;17.780;2022-11-15T14:19:50;6.50;99.90
17236;DHT22;8734;59.272;17.780;2022-11-15T14:22:22;6.50;99.90
17236;DHT22;8734;59.272;17.780;2022-11-15T14:25:23;6.40;99.90
17236;DHT22;8734;59.272;17.780;2022-11-15T14:28:11;6.40;99.90
17236;DHT22;8734;59.272;17.780;2022-11-15T14:30:40;6.40;99.90
17236;DHT22;8734;59.272;17.780;2022-11-15T14:33:22;6.40;99.90
17236;DHT22;8734;59.272;17.780;2022-11-15T14:35:52;6.40;99.90
17236;DHT22;8734;59.272;17.780;2022-11-15T14:38:22;6.30;99.90
17236;DHT22;8734;59.272;17.780;2022-11-15T14:40:50;6.40;99.90
17236;DHT22;8734;59.272;17.780;2022-11-15T14:43:19;6.30;99.90
17236;DHT22;8734;59.272;17.780;2022-11-15T14:45:47;6.40;99.90
17236;DHT22;8734;59.272;17.780;2022-11-15T14:48:15;6.30;99.90
17236;DHT22;8734;59.272;17.780;2022-11-15T14:50:44;6.30;99.90
17236;DHT22;8734;59.272;17.780;2022-11-15T14:53:15;6.30;99.90
17236;DHT22;8734;59.272;17.780;2022-11-15T14:55:45;6.30;99.90
17236;DHT22;8734;59.272;17.780;2022-11-15T14:58:13;6.30;99.90
17236;DHT22;8734;59.272;17.780;2022-11-15T15:00:42;6.30;99.90
17236;DHT22;8734;59.272;17.780;2022-11-15T15:03:10;6.30;99.90
17236;DHT22;8734;59.272;17.780;2022-11-15T15:05:40;6.20;99.90
17236;DHT22;8734;59.272;17.780;2022-11-15T15:08:10;6.20;99.90
17236;DHT22;8734;59.272;17.780;2022-11-15T15:10:40;6.20;99.90
17236;DHT22;8734;59.272;17.780;2022-11-15T15:13:16;6.30;99.90
17236;DHT22;8734;59.272;17.780;2022-11-15T15:15:44;6.30;99.90
17236;DHT22;8734;59.272;17.780;2022-11-15T15:18:13;6.30;99.90
17236;DHT22;8734;59.272;17.780;2022-11-15T15:20:43;6.30;99.90
17236;DHT22;8734;59.272;17.780;2022-11-15T15:23:16;6.30;99.90
17236;DHT22;8734;59.272;17.780;2022-11-15T15:25:45;6.30;99.90
17236;DHT22;8734;59.272;17.780;2022-11-15T15:28:18;6.20;99.90
17236;DHT22;8734;59.272;17.780;2022-11-15T15:30:46;6.20;99.90
17236;DHT22;8734;59.272;17.780;2022-11-15T15:33:14;6.20;99.90
17236;DHT22;8734;59.272;17.780;2022-11-15T15:35:42;6.20;99.90
17236;DHT22;8734;59.272;17.780;2022-11-15T15:38:11;6.20;99.90
17236;DHT22;8734;59.272;17.780;2022-11-15T15:40:41;6.10;99.90
17236;DHT22;8734;59.272;17.780;2022-11-15T15:43:09;6.20;99.90
17236;DHT22;8734;59.272;17.780;2022-11-15T15:45:40;6.10;99.90
17236;DHT22;8734;59.272;17.780;2022-11-15T15:48:11;6.10;99.90
17236;DHT22;8734;59.272;17.780;2022-11-15T15:50:41;6.20;99.90
17236;DHT22;8734;59.272;17.780;2022-11-15T15:53:12;6.20;99.90
17236;DHT22;8734;59.272;17.780;2022-11-15T15:55:40;6.20;99.90
17236;DHT22;8734;59.272;17.780;2022-11-15T15:58:09;6.10;99.90
17236;DHT22;8734;59.272;17.780;2022-11-15T16:00:39;6.10;99.90
17236;DHT22;8734;59.272;17.780;2022-11-15T16:03:07;6.10;99.90
17236;DHT22;8734;59.272;17.780;2022-11-15T16:05:36;6.10;99.90
17236;DHT22;8734;59.272;17.780;2022-11-15T16:08:05;6.10;99.90
17236;DHT22;8734;59.272;17.780;2022-11-15T16:10:34;6.00;99.90
17236;DHT22;8734;59.272;17.780;2022-11-15T16:13:03;6.00;99.90
17236;DHT22;8734;59.272;17.780;2022-11-15T16:15:32;6.00;99.90
17236;DHT22;8734;59.272;17.780;2022-11-15T16:18:03;6.00;99.90
17236;DHT22;8734;59.272;17.780;2022-11-15T16:20:36;6.00;99.90
17236;DHT22;8734;59.272;17.780;2022-11-15T16:23:07;6.00;99.90
17236;DHT22;8734;59.272;17.780;2022-11-15T16:25:39;6.00;99.90
17236;DHT22;8734;59.272;17.780;2022-11-15T16:28:16;6.00;99.90
17236;DHT22;8734;59.272;17.780;2022-11-15T16:30:45;6.00;99.90
17236;DHT22;8734;59.272;17.780;2022-11-15T16:33:20;6.00;99.90
17236;DHT22;8734;59.272;17.780;2022-11-15T16:35:49;6.00;99.90
17236;DHT22;8734;59.272;17.780;2022-11-15T16:38:17;6.00;99.90
17236;DHT22;8734;59.272;17.780;2022-11-15T16:40:46;6.00;99.90